sensor_id;sensor_type;location;lat;lon;timestamp;P1;durP1;ratioP1;P2;durP2;ratioP2
47589;SDS011;33316;52.298;9.056;2023-02-21T00:01:39;30.25;;;19.73;;
47589;SDS011;33316;52.298;9.056;2023-02-21T00:04:23;28.85;;;18.15;;
47589;SDS011;33316;52.298;9.056;2023-02-21T00:07:09;31.13;;;18.92;;
47589;SDS011;33316;52.298;9.056;2023-02-21T00:09:53;27.50;;;18.83;;
47589;SDS011;33316;52.298;9.056;2023-02-21T00:12:37;29.70;;;19.15;;
47589;SDS011;33316;52.298;9.056;2023-02-21T00:15:21;32.95;;;21.05;;
47589;SDS011;33316;52.298;9.056;2023-02-21T00:18:06;30.17;;;19.38;;
47589;SDS011;33316;52.298;9.056;2023-02-21T00:20:50;29.92;;;19.33;;
47589;SDS011;33316;52.298;9.056;2023-02-21T00:23:38;28.80;;;17.95;;
47589;SDS011;33316;52.298;9.056;2023-02-21T00:26:22;28.67;;;17.58;;
47589;SDS011;33316;52.298;9.056;2023-02-21T00:29:12;29.80;;;19.65;;
47589;SDS011;33316;52.298;9.056;2023-02-21T00:31:57;26.90;;;17.20;;
47589;SDS011;33316;52.298;9.056;2023-02-21T00:34:41;27.15;;;17.25;;
47589;SDS011;33316;52.298;9.056;2023-02-21T00:37:30;28.20;;;17.55;;
47589;SDS011;33316;52.298;9.056;2023-02-21T00:40:21;29.27;;;19.10;;
47589;SDS011;33316;52.298;9.056;2023-02-21T00:43:05;28.33;;;17.80;;
47589;SDS011;33316;52.298;9.056;2023-02-21T00:45:49;28.83;;;19.05;;
47589;SDS011;33316;52.298;9.056;2023-02-21T00:48:34;30.60;;;18.60;;
47589;SDS011;33316;52.298;9.056;2023-02-21T00:51:18;29.83;;;19.38;;
47589;SDS011;33316;52.298;9.056;2023-02-21T00:54:07;29.98;;;19.45;;
47589;SDS011;33316;52.298;9.056;2023-02-21T00:56:52;33.35;;;18.20;;
47589;SDS011;33316;52.298;9.056;2023-02-21T00:59:36;27.05;;;17.60;;
47589;SDS011;33316;52.298;9.056;2023-02-21T01:02:20;27.98;;;17.42;;
47589;SDS011;33316;52.298;9.056;2023-02-21T01:05:05;27.95;;;17.20;;
47589;SDS011;33316;52.298;9.056;2023-02-21T01:07:55;25.10;;;16.85;;
47589;SDS011;33316;52.298;9.056;2023-02-21T01:10:39;25.63;;;17.08;;
47589;SDS011;33316;52.298;9.056;2023-02-21T01:13:25;25.90;;;15.57;;
47589;SDS011;33316;52.298;9.056;2023-02-21T01:16:09;24.27;;;15.85;;
47589;SDS011;33316;52.298;9.056;2023-02-21T01:18:53;30.73;;;18.55;;
47589;SDS011;33316;52.298;9.056;2023-02-21T01:21:37;25.70;;;16.67;;
47589;SDS011;33316;52.298;9.056;2023-02-21T01:24:21;26.55;;;17.45;;
47589;SDS011;33316;52.298;9.056;2023-02-21T01:27:05;28.05;;;17.85;;
47589;SDS011;33316;52.298;9.056;2023-02-21T01:29:51;29.45;;;18.70;;
47589;SDS011;33316;52.298;9.056;2023-02-21T01:32:35;24.75;;;15.23;;
47589;SDS011;33316;52.298;9.056;2023-02-21T01:35:19;24.08;;;16.55;;
47589;SDS011;33316;52.298;9.056;2023-02-21T01:38:03;28.77;;;17.90;;
47589;SDS011;33316;52.298;9.056;2023-02-21T01:40:47;26.95;;;16.98;;
47589;SDS011;33316;52.298;9.056;2023-02-21T01:43:32;26.35;;;18.25;;
47589;SDS011;33316;52.298;9.056;2023-02-21T01:46:18;25.60;;;16.95;;
47589;SDS011;33316;52.298;9.056;2023-02-21T01:49:04;26.77;;;17.65;;
47589;SDS011;33316;52.298;9.056;2023-02-21T01:51:51;26.13;;;16.65;;
47589;SDS011;33316;52.298;9.056;2023-02-21T01:54:37;27.83;;;16.65;;
47589;SDS011;33316;52.298;9.056;2023-02-21T01:57:25;28.00;;;18.40;;
47589;SDS011;33316;52.298;9.056;2023-02-21T02:00:10;27.10;;;17.48;;
47589;SDS011;33316;52.298;9.056;2023-02-21T02:02:58;26.23;;;16.67;;
47589;SDS011;33316;52.298;9.056;2023-02-21T02:05:45;25.92;;;16.08;;
47589;SDS011;33316;52.298;9.056;2023-02-21T02:08:32;31.38;;;18.52;;
47589;SDS011;33316;52.298;9.056;2023-02-21T02:11:31;33.10;;;19.25;;
47589;SDS011;33316;52.298;9.056;2023-02-21T02:14:39;32.88;;;19.02;;
47589;SDS011;33316;52.298;9.056;2023-02-21T02:17:30;26.10;;;16.70;;
47589;SDS011;33316;52.298;9.056;2023-02-21T02:20:15;31.52;;;19.40;;
47589;SDS011;33316;52.298;9.056;2023-02-21T02:23:18;31.27;;;19.52;;
47589;SDS011;33316;52.298;9.056;2023-02-21T02:29:22;30.42;;;19.50;;
47589;SDS011;33316;52.298;9.056;2023-02-21T02:32:15;32.33;;;20.25;;
47589;SDS011;33316;52.298;9.056;2023-02-21T02:35:04;27.67;;;18.75;;
47589;SDS011;33316;52.298;9.056;2023-02-21T02:37:35;30.50;;;17.95;;
47589;SDS011;33316;52.298;9.056;2023-02-21T02:40:10;31.23;;;18.23;;
47589;SDS011;33316;52.298;9.056;2023-02-21T02:42:47;29.85;;;18.70;;
47589;SDS011;33316;52.298;9.056;2023-02-21T02:45:24;29.98;;;19.95;;
47589;SDS011;33316;52.298;9.056;2023-02-21T02:47:56;27.75;;;18.08;;
47589;SDS011;33316;52.298;9.056;2023-02-21T02:50:29;35.63;;;21.95;;
47589;SDS011;33316;52.298;9.056;2023-02-21T02:52:59;33.30;;;20.47;;
47589;SDS011;33316;52.298;9.056;2023-02-21T02:55:33;30.35;;;19.33;;
47589;SDS011;33316;52.298;9.056;2023-02-21T02:58:04;30.27;;;18.65;;
47589;SDS011;33316;52.298;9.056;2023-02-21T03:00:33;32.17;;;20.02;;
47589;SDS011;33316;52.298;9.056;2023-02-21T03:03:08;32.05;;;20.88;;
47589;SDS011;33316;52.298;9.056;2023-02-21T03:05:55;33.03;;;19.08;;
47589;SDS011;33316;52.298;9.056;2023-02-21T03:08:32;32.97;;;19.33;;
47589;SDS011;33316;52.298;9.056;2023-02-21T03:11:06;29.70;;;18.60;;
47589;SDS011;33316;52.298;9.056;2023-02-21T03:13:40;35.20;;;21.33;;
47589;SDS011;33316;52.298;9.056;2023-02-21T03:16:14;34.80;;;20.92;;
47589;SDS011;33316;52.298;9.056;2023-02-21T03:18:45;33.10;;;20.98;;
47589;SDS011;33316;52.298;9.056;2023-02-21T03:21:17;32.03;;;19.67;;
47589;SDS011;33316;52.298;9.056;2023-02-21T03:23:47;33.05;;;20.27;;
47589;SDS011;33316;52.298;9.056;2023-02-21T03:26:16;33.50;;;19.77;;
47589;SDS011;33316;52.298;9.056;2023-02-21T03:28:44;35.50;;;19.63;;
47589;SDS011;33316;52.298;9.056;2023-02-21T03:31:13;34.13;;;20.02;;
47589;SDS011;33316;52.298;9.056;2023-02-21T03:33:44;38.15;;;21.27;;
47589;SDS011;33316;52.298;9.056;2023-02-21T03:36:11;39.63;;;23.65;;
47589;SDS011;33316;52.298;9.056;2023-02-21T03:38:40;35.28;;;22.77;;
47589;SDS011;33316;52.298;9.056;2023-02-21T03:41:07;34.30;;;20.13;;
47589;SDS011;33316;52.298;9.056;2023-02-21T03:43:36;36.00;;;21.02;;
47589;SDS011;33316;52.298;9.056;2023-02-21T03:46:02;39.33;;;22.85;;
47589;SDS011;33316;52.298;9.056;2023-02-21T03:48:29;39.83;;;22.70;;
47589;SDS011;33316;52.298;9.056;2023-02-21T03:50:56;34.58;;;20.25;;
47589;SDS011;33316;52.298;9.056;2023-02-21T03:53:23;31.92;;;20.45;;
47589;SDS011;33316;52.298;9.056;2023-02-21T03:55:51;35.03;;;20.88;;
47589;SDS011;33316;52.298;9.056;2023-02-21T03:58:17;31.83;;;19.73;;
47589;SDS011;33316;52.298;9.056;2023-02-21T04:00:44;32.60;;;19.95;;
47589;SDS011;33316;52.298;9.056;2023-02-21T04:03:11;32.05;;;19.98;;
47589;SDS011;33316;52.298;9.056;2023-02-21T04:05:38;32.88;;;20.80;;
47589;SDS011;33316;52.298;9.056;2023-02-21T04:08:05;28.52;;;18.77;;
47589;SDS011;33316;52.298;9.056;2023-02-21T04:10:31;34.90;;;20.40;;
47589;SDS011;33316;52.298;9.056;2023-02-21T04:12:59;36.65;;;22.08;;
47589;SDS011;33316;52.298;9.056;2023-02-21T04:15:26;34.95;;;20.98;;
47589;SDS011;33316;52.298;9.056;2023-02-21T04:17:53;33.97;;;20.73;;
47589;SDS011;33316;52.298;9.056;2023-02-21T04:20:19;33.75;;;21.08;;
47589;SDS011;33316;52.298;9.056;2023-02-21T04:22:46;31.15;;;19.45;;
47589;SDS011;33316;52.298;9.056;2023-02-21T04:25:13;33.15;;;19.73;;
47589;SDS011;33316;52.298;9.056;2023-02-21T04:27:40;32.90;;;20.98;;
47589;SDS011;33316;52.298;9.056;2023-02-21T04:30:09;29.02;;;18.75;;
47589;SDS011;33316;52.298;9.056;2023-02-21T04:32:36;33.72;;;20.75;;
47589;SDS011;33316;52.298;9.056;2023-02-21T04:35:03;34.95;;;21.45;;
47589;SDS011;33316;52.298;9.056;2023-02-21T04:37:30;33.78;;;20.45;;
47589;SDS011;33316;52.298;9.056;2023-02-21T04:39:56;31.58;;;18.92;;
47589;SDS011;33316;52.298;9.056;2023-02-21T04:42:23;34.80;;;20.48;;
47589;SDS011;33316;52.298;9.056;2023-02-21T04:44:50;36.92;;;22.10;;
47589;SDS011;33316;52.298;9.056;2023-02-21T04:47:18;34.72;;;20.85;;
47589;SDS011;33316;52.298;9.056;2023-02-21T04:49:45;37.03;;;22.48;;
47589;SDS011;33316;52.298;9.056;2023-02-21T04:52:15;33.40;;;20.48;;
47589;SDS011;33316;52.298;9.056;2023-02-21T04:54:44;34.28;;;20.95;;
47589;SDS011;33316;52.298;9.056;2023-02-21T04:57:11;36.60;;;21.23;;
47589;SDS011;33316;52.298;9.056;2023-02-21T04:59:37;33.90;;;21.55;;
47589;SDS011;33316;52.298;9.056;2023-02-21T05:02:04;33.25;;;20.02;;
47589;SDS011;33316;52.298;9.056;2023-02-21T05:04:33;31.10;;;18.83;;
47589;SDS011;33316;52.298;9.056;2023-02-21T05:07:00;32.72;;;19.60;;
47589;SDS011;33316;52.298;9.056;2023-02-21T05:09:27;34.78;;;21.20;;
47589;SDS011;33316;52.298;9.056;2023-02-21T05:11:54;36.25;;;20.40;;
47589;SDS011;33316;52.298;9.056;2023-02-21T05:14:20;35.88;;;22.05;;
47589;SDS011;33316;52.298;9.056;2023-02-21T05:16:47;35.13;;;21.35;;
47589;SDS011;33316;52.298;9.056;2023-02-21T05:19:16;33.60;;;20.75;;
47589;SDS011;33316;52.298;9.056;2023-02-21T05:21:52;33.70;;;20.73;;
47589;SDS011;33316;52.298;9.056;2023-02-21T05:24:19;33.78;;;19.23;;
47589;SDS011;33316;52.298;9.056;2023-02-21T05:26:46;33.78;;;21.00;;
47589;SDS011;33316;52.298;9.056;2023-02-21T05:29:14;33.63;;;19.60;;
47589;SDS011;33316;52.298;9.056;2023-02-21T05:31:41;33.80;;;21.20;;
47589;SDS011;33316;52.298;9.056;2023-02-21T05:34:07;35.97;;;21.92;;
47589;SDS011;33316;52.298;9.056;2023-02-21T05:36:40;35.53;;;20.73;;
47589;SDS011;33316;52.298;9.056;2023-02-21T05:39:08;35.27;;;20.57;;
47589;SDS011;33316;52.298;9.056;2023-02-21T05:41:35;30.90;;;18.95;;
47589;SDS011;33316;52.298;9.056;2023-02-21T05:44:02;33.85;;;21.27;;
47589;SDS011;33316;52.298;9.056;2023-02-21T05:46:30;34.63;;;20.08;;
47589;SDS011;33316;52.298;9.056;2023-02-21T05:49:00;37.03;;;21.95;;
47589;SDS011;33316;52.298;9.056;2023-02-21T05:51:32;32.65;;;20.48;;
47589;SDS011;33316;52.298;9.056;2023-02-21T05:53:59;29.30;;;18.05;;
47589;SDS011;33316;52.298;9.056;2023-02-21T05:56:28;31.80;;;19.40;;
47589;SDS011;33316;52.298;9.056;2023-02-21T05:58:54;35.58;;;20.55;;
47589;SDS011;33316;52.298;9.056;2023-02-21T06:01:21;31.27;;;18.35;;
47589;SDS011;33316;52.298;9.056;2023-02-21T06:03:48;33.22;;;19.33;;
47589;SDS011;33316;52.298;9.056;2023-02-21T06:06:14;31.05;;;19.00;;
47589;SDS011;33316;52.298;9.056;2023-02-21T06:08:42;33.80;;;18.10;;
47589;SDS011;33316;52.298;9.056;2023-02-21T06:11:10;31.10;;;19.75;;
47589;SDS011;33316;52.298;9.056;2023-02-21T06:13:38;34.05;;;19.92;;
47589;SDS011;33316;52.298;9.056;2023-02-21T06:16:04;37.03;;;21.23;;
47589;SDS011;33316;52.298;9.056;2023-02-21T06:18:31;32.75;;;20.45;;
47589;SDS011;33316;52.298;9.056;2023-02-21T06:20:58;31.70;;;18.23;;
47589;SDS011;33316;52.298;9.056;2023-02-21T06:23:25;30.65;;;19.35;;
47589;SDS011;33316;52.298;9.056;2023-02-21T06:25:52;32.58;;;17.80;;
47589;SDS011;33316;52.298;9.056;2023-02-21T06:28:18;31.75;;;18.38;;
47589;SDS011;33316;52.298;9.056;2023-02-21T06:30:46;31.95;;;19.02;;
47589;SDS011;33316;52.298;9.056;2023-02-21T06:33:13;30.30;;;18.55;;
47589;SDS011;33316;52.298;9.056;2023-02-21T06:35:40;30.48;;;18.30;;
47589;SDS011;33316;52.298;9.056;2023-02-21T06:38:06;31.50;;;18.55;;
47589;SDS011;33316;52.298;9.056;2023-02-21T06:40:33;32.83;;;18.63;;
47589;SDS011;33316;52.298;9.056;2023-02-21T06:43:00;34.55;;;20.35;;
47589;SDS011;33316;52.298;9.056;2023-02-21T06:45:26;32.45;;;18.73;;
47589;SDS011;33316;52.298;9.056;2023-02-21T06:47:54;32.30;;;19.60;;
47589;SDS011;33316;52.298;9.056;2023-02-21T06:50:21;32.97;;;19.48;;
47589;SDS011;33316;52.298;9.056;2023-02-21T06:52:48;32.72;;;18.98;;
47589;SDS011;33316;52.298;9.056;2023-02-21T06:55:18;30.95;;;18.35;;
47589;SDS011;33316;52.298;9.056;2023-02-21T06:57:45;35.03;;;20.40;;
47589;SDS011;33316;52.298;9.056;2023-02-21T07:00:13;30.35;;;18.83;;
47589;SDS011;33316;52.298;9.056;2023-02-21T07:02:41;35.50;;;21.00;;
47589;SDS011;33316;52.298;9.056;2023-02-21T07:05:09;33.63;;;21.00;;
47589;SDS011;33316;52.298;9.056;2023-02-21T07:07:36;34.00;;;20.63;;
47589;SDS011;33316;52.298;9.056;2023-02-21T07:10:03;33.90;;;20.08;;
47589;SDS011;33316;52.298;9.056;2023-02-21T07:12:30;34.53;;;20.92;;
47589;SDS011;33316;52.298;9.056;2023-02-21T07:14:57;37.15;;;22.45;;
47589;SDS011;33316;52.298;9.056;2023-02-21T07:17:23;35.05;;;21.15;;
47589;SDS011;33316;52.298;9.056;2023-02-21T07:19:50;40.78;;;22.85;;
47589;SDS011;33316;52.298;9.056;2023-02-21T07:22:18;39.40;;;22.35;;
47589;SDS011;33316;52.298;9.056;2023-02-21T07:24:50;39.38;;;22.55;;
47589;SDS011;33316;52.298;9.056;2023-02-21T07:27:16;34.45;;;20.40;;
47589;SDS011;33316;52.298;9.056;2023-02-21T07:29:44;36.42;;;20.75;;
47589;SDS011;33316;52.298;9.056;2023-02-21T07:32:11;35.65;;;19.98;;
47589;SDS011;33316;52.298;9.056;2023-02-21T07:34:38;33.70;;;19.70;;
47589;SDS011;33316;52.298;9.056;2023-02-21T07:37:05;33.80;;;19.67;;
47589;SDS011;33316;52.298;9.056;2023-02-21T07:39:33;38.20;;;21.40;;
47589;SDS011;33316;52.298;9.056;2023-02-21T07:42:00;33.33;;;19.63;;
47589;SDS011;33316;52.298;9.056;2023-02-21T07:44:27;30.88;;;19.17;;
47589;SDS011;33316;52.298;9.056;2023-02-21T07:46:54;34.88;;;19.50;;
47589;SDS011;33316;52.298;9.056;2023-02-21T07:49:21;34.67;;;19.63;;
47589;SDS011;33316;52.298;9.056;2023-02-21T07:51:48;32.35;;;18.35;;
47589;SDS011;33316;52.298;9.056;2023-02-21T07:54:15;31.48;;;18.63;;
47589;SDS011;33316;52.298;9.056;2023-02-21T07:56:44;34.00;;;19.92;;
47589;SDS011;33316;52.298;9.056;2023-02-21T07:59:12;33.33;;;18.92;;
47589;SDS011;33316;52.298;9.056;2023-02-21T08:01:39;32.22;;;17.70;;
47589;SDS011;33316;52.298;9.056;2023-02-21T08:04:06;29.45;;;17.80;;
47589;SDS011;33316;52.298;9.056;2023-02-21T08:06:33;33.42;;;19.75;;
47589;SDS011;33316;52.298;9.056;2023-02-21T08:09:00;30.17;;;17.48;;
47589;SDS011;33316;52.298;9.056;2023-02-21T08:11:28;30.80;;;18.92;;
47589;SDS011;33316;52.298;9.056;2023-02-21T08:13:56;32.10;;;18.15;;
47589;SDS011;33316;52.298;9.056;2023-02-21T08:16:22;34.90;;;20.20;;
47589;SDS011;33316;52.298;9.056;2023-02-21T08:18:49;35.10;;;20.20;;
47589;SDS011;33316;52.298;9.056;2023-02-21T08:21:16;36.03;;;21.08;;
47589;SDS011;33316;52.298;9.056;2023-02-21T08:23:43;40.53;;;21.63;;
47589;SDS011;33316;52.298;9.056;2023-02-21T08:26:10;40.65;;;22.65;;
47589;SDS011;33316;52.298;9.056;2023-02-21T08:28:36;37.78;;;22.02;;
47589;SDS011;33316;52.298;9.056;2023-02-21T08:31:05;36.13;;;20.10;;
47589;SDS011;33316;52.298;9.056;2023-02-21T08:33:32;36.33;;;20.33;;
47589;SDS011;33316;52.298;9.056;2023-02-21T08:35:59;30.75;;;18.58;;
47589;SDS011;33316;52.298;9.056;2023-02-21T08:38:25;34.60;;;19.20;;
47589;SDS011;33316;52.298;9.056;2023-02-21T08:40:52;31.80;;;18.15;;
47589;SDS011;33316;52.298;9.056;2023-02-21T08:43:19;32.22;;;18.83;;
47589;SDS011;33316;52.298;9.056;2023-02-21T08:45:45;38.58;;;22.48;;
47589;SDS011;33316;52.298;9.056;2023-02-21T08:48:13;34.95;;;19.65;;
47589;SDS011;33316;52.298;9.056;2023-02-21T08:50:40;35.33;;;21.13;;
47589;SDS011;33316;52.298;9.056;2023-02-21T08:53:07;33.88;;;20.10;;
47589;SDS011;33316;52.298;9.056;2023-02-21T08:55:36;33.72;;;19.08;;
47589;SDS011;33316;52.298;9.056;2023-02-21T08:58:03;36.30;;;20.33;;
47589;SDS011;33316;52.298;9.056;2023-02-21T09:00:30;34.85;;;17.92;;
47589;SDS011;33316;52.298;9.056;2023-02-21T09:02:57;35.55;;;18.63;;
47589;SDS011;33316;52.298;9.056;2023-02-21T09:05:27;33.03;;;18.17;;
47589;SDS011;33316;52.298;9.056;2023-02-21T09:07:55;37.58;;;20.65;;
47589;SDS011;33316;52.298;9.056;2023-02-21T09:10:26;34.57;;;19.00;;
47589;SDS011;33316;52.298;9.056;2023-02-21T09:12:54;32.35;;;17.95;;
47589;SDS011;33316;52.298;9.056;2023-02-21T09:15:21;29.05;;;15.95;;
47589;SDS011;33316;52.298;9.056;2023-02-21T09:17:47;29.90;;;17.27;;
47589;SDS011;33316;52.298;9.056;2023-02-21T09:20:15;27.52;;;15.73;;
47589;SDS011;33316;52.298;9.056;2023-02-21T09:22:46;27.35;;;15.20;;
47589;SDS011;33316;52.298;9.056;2023-02-21T09:25:13;27.33;;;16.02;;
47589;SDS011;33316;52.298;9.056;2023-02-21T09:30:11;26.23;;;14.50;;
47589;SDS011;33316;52.298;9.056;2023-02-21T09:32:39;24.60;;;14.75;;
47589;SDS011;33316;52.298;9.056;2023-02-21T09:35:07;28.00;;;14.35;;
47589;SDS011;33316;52.298;9.056;2023-02-21T09:37:36;25.33;;;14.27;;
47589;SDS011;33316;52.298;9.056;2023-02-21T09:40:06;21.90;;;13.98;;
47589;SDS011;33316;52.298;9.056;2023-02-21T09:42:37;24.67;;;14.65;;
47589;SDS011;33316;52.298;9.056;2023-02-21T09:45:05;29.77;;;16.10;;
47589;SDS011;33316;52.298;9.056;2023-02-21T09:47:35;28.27;;;15.00;;
47589;SDS011;33316;52.298;9.056;2023-02-21T09:50:04;27.00;;;15.90;;
47589;SDS011;33316;52.298;9.056;2023-02-21T09:52:35;22.65;;;13.50;;
47589;SDS011;33316;52.298;9.056;2023-02-21T09:55:06;23.23;;;13.75;;
47589;SDS011;33316;52.298;9.056;2023-02-21T09:57:38;23.67;;;14.10;;
47589;SDS011;33316;52.298;9.056;2023-02-21T10:00:09;25.48;;;14.07;;
47589;SDS011;33316;52.298;9.056;2023-02-21T10:02:58;21.63;;;12.82;;
47589;SDS011;33316;52.298;9.056;2023-02-21T10:05:38;23.30;;;13.63;;
47589;SDS011;33316;52.298;9.056;2023-02-21T10:08:13;26.33;;;15.02;;
47589;SDS011;33316;52.298;9.056;2023-02-21T10:10:50;24.35;;;14.85;;
47589;SDS011;33316;52.298;9.056;2023-02-21T10:13:22;24.23;;;14.18;;
47589;SDS011;33316;52.298;9.056;2023-02-21T10:15:59;23.75;;;14.77;;
47589;SDS011;33316;52.298;9.056;2023-02-21T10:18:31;25.70;;;15.50;;
47589;SDS011;33316;52.298;9.056;2023-02-21T10:21:07;22.90;;;14.50;;
47589;SDS011;33316;52.298;9.056;2023-02-21T10:23:39;23.85;;;14.48;;
47589;SDS011;33316;52.298;9.056;2023-02-21T10:26:13;22.52;;;13.98;;
47589;SDS011;33316;52.298;9.056;2023-02-21T10:28:46;23.00;;;13.52;;
47589;SDS011;33316;52.298;9.056;2023-02-21T10:31:14;24.75;;;13.68;;
47589;SDS011;33316;52.298;9.056;2023-02-21T10:33:49;18.35;;;10.88;;
47589;SDS011;33316;52.298;9.056;2023-02-21T10:36:20;19.88;;;12.43;;
47589;SDS011;33316;52.298;9.056;2023-02-21T10:38:51;19.08;;;12.05;;
47589;SDS011;33316;52.298;9.056;2023-02-21T10:41:23;18.23;;;11.20;;
47589;SDS011;33316;52.298;9.056;2023-02-21T10:43:56;20.65;;;11.70;;
47589;SDS011;33316;52.298;9.056;2023-02-21T10:46:27;22.98;;;12.20;;
47589;SDS011;33316;52.298;9.056;2023-02-21T10:49:08;20.48;;;11.23;;
47589;SDS011;33316;52.298;9.056;2023-02-21T10:51:45;17.95;;;10.88;;
47589;SDS011;33316;52.298;9.056;2023-02-21T10:54:30;19.27;;;10.98;;
47589;SDS011;33316;52.298;9.056;2023-02-21T10:57:03;20.77;;;12.23;;
47589;SDS011;33316;52.298;9.056;2023-02-21T10:59:33;18.35;;;11.25;;
47589;SDS011;33316;52.298;9.056;2023-02-21T11:02:02;19.92;;;11.32;;
47589;SDS011;33316;52.298;9.056;2023-02-21T11:04:50;14.85;;;9.90;;
47589;SDS011;33316;52.298;9.056;2023-02-21T11:07:19;16.75;;;10.07;;
47589;SDS011;33316;52.298;9.056;2023-02-21T11:09:50;21.30;;;10.93;;
47589;SDS011;33316;52.298;9.056;2023-02-21T11:12:22;18.13;;;10.80;;
47589;SDS011;33316;52.298;9.056;2023-02-21T11:15:14;16.02;;;9.77;;
47589;SDS011;33316;52.298;9.056;2023-02-21T11:17:45;15.65;;;9.80;;
47589;SDS011;33316;52.298;9.056;2023-02-21T11:20:29;15.82;;;10.02;;
47589;SDS011;33316;52.298;9.056;2023-02-21T11:22:55;17.80;;;10.00;;
47589;SDS011;33316;52.298;9.056;2023-02-21T11:25:26;18.77;;;11.38;;
47589;SDS011;33316;52.298;9.056;2023-02-21T11:28:02;15.63;;;10.32;;
47589;SDS011;33316;52.298;9.056;2023-02-21T11:30:31;17.17;;;10.18;;
47589;SDS011;33316;52.298;9.056;2023-02-21T11:33:02;17.77;;;11.68;;
47589;SDS011;33316;52.298;9.056;2023-02-21T11:35:31;21.45;;;13.27;;
47589;SDS011;33316;52.298;9.056;2023-02-21T11:38:01;17.50;;;10.65;;
47589;SDS011;33316;52.298;9.056;2023-02-21T11:40:31;18.23;;;10.68;;
47589;SDS011;33316;52.298;9.056;2023-02-21T11:43:11;16.48;;;10.00;;
47589;SDS011;33316;52.298;9.056;2023-02-21T11:45:54;14.88;;;9.00;;
47589;SDS011;33316;52.298;9.056;2023-02-21T11:48:30;16.73;;;9.80;;
47589;SDS011;33316;52.298;9.056;2023-02-21T11:51:02;15.43;;;9.63;;
47589;SDS011;33316;52.298;9.056;2023-02-21T11:53:33;16.27;;;9.73;;
47589;SDS011;33316;52.298;9.056;2023-02-21T11:56:06;15.98;;;9.98;;
47589;SDS011;33316;52.298;9.056;2023-02-21T11:58:45;18.10;;;11.32;;
47589;SDS011;33316;52.298;9.056;2023-02-21T12:01:22;17.67;;;10.35;;
47589;SDS011;33316;52.298;9.056;2023-02-21T12:04:00;19.98;;;11.35;;
47589;SDS011;33316;52.298;9.056;2023-02-21T12:06:40;17.95;;;11.75;;
47589;SDS011;33316;52.298;9.056;2023-02-21T12:09:11;20.98;;;12.75;;
47589;SDS011;33316;52.298;9.056;2023-02-21T12:11:56;18.40;;;11.13;;
47589;SDS011;33316;52.298;9.056;2023-02-21T12:14:39;17.15;;;10.40;;
47589;SDS011;33316;52.298;9.056;2023-02-21T12:17:21;18.63;;;11.75;;
47589;SDS011;33316;52.298;9.056;2023-02-21T12:20:18;17.23;;;10.35;;
47589;SDS011;33316;52.298;9.056;2023-02-21T12:22:55;17.40;;;10.40;;
47589;SDS011;33316;52.298;9.056;2023-02-21T12:28:08;20.80;;;10.68;;
47589;SDS011;33316;52.298;9.056;2023-02-21T12:31:02;19.63;;;10.93;;
47589;SDS011;33316;52.298;9.056;2023-02-21T12:33:40;19.83;;;11.88;;
47589;SDS011;33316;52.298;9.056;2023-02-21T12:36:22;20.08;;;11.82;;
47589;SDS011;33316;52.298;9.056;2023-02-21T12:39:00;16.48;;;10.45;;
47589;SDS011;33316;52.298;9.056;2023-02-21T12:41:48;19.35;;;11.45;;
47589;SDS011;33316;52.298;9.056;2023-02-21T12:44:26;24.23;;;12.57;;
47589;SDS011;33316;52.298;9.056;2023-02-21T12:47:01;22.92;;;12.23;;
47589;SDS011;33316;52.298;9.056;2023-02-21T12:49:35;22.35;;;12.95;;
47589;SDS011;33316;52.298;9.056;2023-02-21T12:52:12;19.60;;;12.07;;
47589;SDS011;33316;52.298;9.056;2023-02-21T12:54:42;17.75;;;10.88;;
47589;SDS011;33316;52.298;9.056;2023-02-21T12:57:13;21.92;;;12.40;;
47589;SDS011;33316;52.298;9.056;2023-02-21T13:02:18;17.35;;;10.60;;
47589;SDS011;33316;52.298;9.056;2023-02-21T13:04:52;17.30;;;10.50;;
47589;SDS011;33316;52.298;9.056;2023-02-21T13:07:22;19.35;;;10.93;;
47589;SDS011;33316;52.298;9.056;2023-02-21T13:09:54;19.25;;;11.95;;
47589;SDS011;33316;52.298;9.056;2023-02-21T13:12:27;22.63;;;11.93;;
47589;SDS011;33316;52.298;9.056;2023-02-21T13:14:59;18.50;;;11.60;;
47589;SDS011;33316;52.298;9.056;2023-02-21T13:17:39;21.77;;;12.40;;
47589;SDS011;33316;52.298;9.056;2023-02-21T13:20:09;19.97;;;11.90;;
47589;SDS011;33316;52.298;9.056;2023-02-21T13:22:42;23.50;;;13.43;;
47589;SDS011;33316;52.298;9.056;2023-02-21T13:25:23;23.83;;;13.15;;
47589;SDS011;33316;52.298;9.056;2023-02-21T13:27:56;21.95;;;12.45;;
47589;SDS011;33316;52.298;9.056;2023-02-21T13:30:36;22.67;;;12.50;;
47589;SDS011;33316;52.298;9.056;2023-02-21T13:33:06;22.35;;;12.73;;
47589;SDS011;33316;52.298;9.056;2023-02-21T13:35:52;22.40;;;13.18;;
47589;SDS011;33316;52.298;9.056;2023-02-21T13:38:21;24.15;;;13.50;;
47589;SDS011;33316;52.298;9.056;2023-02-21T13:40:48;24.88;;;14.45;;
47589;SDS011;33316;52.298;9.056;2023-02-21T13:43:21;26.50;;;14.48;;
47589;SDS011;33316;52.298;9.056;2023-02-21T13:45:50;19.77;;;12.55;;
47589;SDS011;33316;52.298;9.056;2023-02-21T13:48:28;26.48;;;14.27;;
47589;SDS011;33316;52.298;9.056;2023-02-21T13:50:55;22.25;;;13.30;;
47589;SDS011;33316;52.298;9.056;2023-02-21T13:53:24;22.00;;;12.50;;
47589;SDS011;33316;52.298;9.056;2023-02-21T14:04:59;18.90;;;11.00;;
47589;SDS011;33316;52.298;9.056;2023-02-21T14:07:43;20.60;;;12.65;;
47589;SDS011;33316;52.298;9.056;2023-02-21T14:10:29;17.95;;;10.93;;
47589;SDS011;33316;52.298;9.056;2023-02-21T14:12:59;21.83;;;11.32;;
47589;SDS011;33316;52.298;9.056;2023-02-21T14:15:38;18.27;;;11.57;;
47589;SDS011;33316;52.298;9.056;2023-02-21T14:18:13;22.75;;;11.80;;
47589;SDS011;33316;52.298;9.056;2023-02-21T14:20:49;20.95;;;12.45;;
47589;SDS011;33316;52.298;9.056;2023-02-21T14:23:19;22.08;;;11.82;;
47589;SDS011;33316;52.298;9.056;2023-02-21T14:25:55;19.10;;;10.95;;
47589;SDS011;33316;52.298;9.056;2023-02-21T14:34:10;14.35;;;7.80;;
47589;SDS011;33316;52.298;9.056;2023-02-21T14:36:40;13.13;;;7.80;;
47589;SDS011;33316;52.298;9.056;2023-02-21T14:39:08;15.23;;;8.82;;
47589;SDS011;33316;52.298;9.056;2023-02-21T14:41:36;14.23;;;8.48;;
47589;SDS011;33316;52.298;9.056;2023-02-21T14:44:18;13.48;;;8.55;;
47589;SDS011;33316;52.298;9.056;2023-02-21T14:49:55;13.48;;;8.38;;
47589;SDS011;33316;52.298;9.056;2023-02-21T14:52:51;13.93;;;7.93;;
47589;SDS011;33316;52.298;9.056;2023-02-21T14:55:42;16.20;;;9.48;;
47589;SDS011;33316;52.298;9.056;2023-02-21T15:01:43;15.82;;;9.13;;
47589;SDS011;33316;52.298;9.056;2023-02-21T15:04:19;17.38;;;10.15;;
47589;SDS011;33316;52.298;9.056;2023-02-21T15:06:56;15.57;;;8.98;;
47589;SDS011;33316;52.298;9.056;2023-02-21T15:09:30;16.65;;;9.98;;
47589;SDS011;33316;52.298;9.056;2023-02-21T15:11:57;16.77;;;9.63;;
47589;SDS011;33316;52.298;9.056;2023-02-21T15:14:26;14.60;;;9.35;;
47589;SDS011;33316;52.298;9.056;2023-02-21T15:17:09;15.30;;;8.93;;
47589;SDS011;33316;52.298;9.056;2023-02-21T15:19:39;12.95;;;8.68;;
47589;SDS011;33316;52.298;9.056;2023-02-21T15:22:06;14.70;;;9.52;;
47589;SDS011;33316;52.298;9.056;2023-02-21T15:30:57;16.13;;;8.75;;
47589;SDS011;33316;52.298;9.056;2023-02-21T15:33:29;15.15;;;8.77;;
47589;SDS011;33316;52.298;9.056;2023-02-21T15:36:02;19.08;;;10.48;;
47589;SDS011;33316;52.298;9.056;2023-02-21T15:38:33;16.73;;;9.15;;